createdAt,value
2023-01-31T00:01:40.090Z,99961.69
2023-01-31T00:04:42.706Z,99957.03
2023-01-31T00:07:45.568Z,99960.84
2023-01-31T00:10:48.524Z,99972.03
2023-01-31T00:13:51.859Z,99973.69
2023-01-31T00:16:54.451Z,99945.44
2023-01-31T00:19:56.910Z,99954.22
2023-01-31T00:22:59.447Z,99949.28
2023-01-31T00:26:12.082Z,99933.97
2023-01-31T00:29:14.709Z,99940.25
2023-01-31T00:32:20.993Z,99953.59
2023-01-31T00:35:25.529Z,99945.69
2023-01-31T00:38:28.167Z,99949.81
2023-01-31T00:41:31.145Z,99945.66
2023-01-31T00:44:33.724Z,99963.34
2023-01-31T00:47:36.421Z,99964.78
2023-01-31T00:50:39.550Z,99942.19
2023-01-31T00:53:42.002Z,99948.91
2023-01-31T00:56:44.880Z,99952.88
2023-01-31T00:59:48.473Z,99961.00
2023-01-31T01:02:50.955Z,99935.19
2023-01-31T01:05:53.459Z,99938.53
2023-01-31T01:08:57.926Z,99953.34
2023-01-31T01:12:01.296Z,99945.09
2023-01-31T01:15:04.284Z,99936.47
2023-01-31T01:18:07.597Z,99937.81
2023-01-31T01:21:14.367Z,99957.00
2023-01-31T01:24:19.799Z,99957.94
2023-01-31T01:27:23.226Z,99939.75
2023-01-31T01:30:25.704Z,99966.06
2023-01-31T01:33:28.198Z,99982.91
2023-01-31T01:36:34.585Z,99979.25
2023-01-31T01:39:40.344Z,99958.28
2023-01-31T01:42:43.095Z,99957.97
2023-01-31T01:45:45.734Z,99991.81
2023-01-31T01:48:53.104Z,99971.34
2023-01-31T01:51:57.923Z,99990.84
2023-01-31T01:55:44.515Z,100006.88
2023-01-31T01:59:02.061Z,99999.13
2023-01-31T02:02:05.134Z,100012.00
2023-01-31T02:05:09.091Z,100013.31
2023-01-31T02:08:15.914Z,100006.53
2023-01-31T02:11:30.848Z,100022.56
2023-01-31T02:14:33.773Z,99987.38
2023-01-31T02:17:36.722Z,99988.38
2023-01-31T02:21:13.386Z,100005.44
2023-01-31T02:24:25.215Z,100001.44
2023-01-31T02:27:37.010Z,100010.22
2023-01-31T02:30:49.387Z,100013.53
2023-01-31T02:34:06.466Z,100001.78
2023-01-31T02:37:24.442Z,100012.34
2023-01-31T02:40:35.902Z,100026.72
2023-01-31T02:44:17.427Z,100064.91
2023-01-31T02:47:25.927Z,100045.72
2023-01-31T02:50:34.376Z,100048.53
2023-01-31T02:53:45.695Z,100040.63
2023-01-31T02:56:50.798Z,100050.50
2023-01-31T02:59:53.519Z,100051.81
2023-01-31T03:02:56.536Z,100059.44
2023-01-31T03:06:12.482Z,100062.38
2023-01-31T03:09:40.316Z,100067.03
2023-01-31T03:13:07.699Z,100086.34
2023-01-31T03:16:28.921Z,100075.47
2023-01-31T03:19:38.494Z,100078.09
2023-01-31T03:22:45.667Z,100077.59
2023-01-31T03:25:50.183Z,100070.16
2023-01-31T03:28:57.282Z,100079.59
2023-01-31T03:32:06.831Z,100074.81
2023-01-31T03:35:10.078Z,100100.91
2023-01-31T03:38:31.689Z,100118.38
2023-01-31T03:41:37.539Z,100114.44
2023-01-31T03:44:50.318Z,100120.19
2023-01-31T03:47:55.153Z,100122.00
2023-01-31T03:51:02.223Z,100115.75
2023-01-31T03:54:14.824Z,100137.88
2023-01-31T03:57:25.553Z,100143.03
2023-01-31T04:00:29.246Z,100144.66
2023-01-31T04:03:39.500Z,100140.50
2023-01-31T04:06:42.370Z,100157.69
2023-01-31T04:09:45.315Z,100166.28
2023-01-31T04:12:47.791Z,100154.25
2023-01-31T04:15:50.270Z,100162.81
2023-01-31T04:18:52.985Z,100161.50
2023-01-31T04:21:55.503Z,100174.84
2023-01-31T04:24:57.990Z,100175.00
2023-01-31T04:28:00.495Z,100186.75
2023-01-31T04:31:03.221Z,100184.09
2023-01-31T04:34:05.977Z,100215.16
2023-01-31T04:37:08.847Z,100221.47
2023-01-31T04:40:14.106Z,100210.06
2023-01-31T04:43:17.312Z,100198.13
2023-01-31T04:46:19.993Z,100220.25
2023-01-31T04:49:22.526Z,100222.53
2023-01-31T04:52:25.073Z,100215.97
2023-01-31T04:55:27.932Z,100245.22
2023-01-31T04:58:30.435Z,100227.91
2023-01-31T05:01:33.010Z,100230.53
2023-01-31T05:04:35.493Z,100231.69
2023-01-31T05:07:38.755Z,100232.88
2023-01-31T05:10:42.961Z,100244.09
2023-01-31T05:13:45.524Z,100252.84
2023-01-31T05:16:48.167Z,100266.38
2023-01-31T05:19:50.694Z,100261.41
2023-01-31T05:22:53.128Z,100259.78
2023-01-31T05:25:55.766Z,100271.75
2023-01-31T05:29:00.588Z,100259.88
2023-01-31T05:32:04.419Z,100254.66
2023-01-31T05:35:07.422Z,100236.78
2023-01-31T05:38:10.025Z,100242.06
2023-01-31T05:41:12.555Z,100237.03
2023-01-31T05:44:16.336Z,100244.13
2023-01-31T05:47:18.892Z,100237.09
2023-01-31T05:50:21.665Z,100248.75
2023-01-31T05:53:24.922Z,100279.22
2023-01-31T05:56:27.572Z,100252.94
2023-01-31T05:59:32.291Z,100236.78
2023-01-31T06:02:34.993Z,100221.56
2023-01-31T06:05:40.710Z,100234.13
2023-01-31T06:08:43.625Z,100238.75
2023-01-31T06:11:46.834Z,100244.19
2023-01-31T06:14:49.446Z,100241.38
2023-01-31T06:17:51.956Z,100247.31
2023-01-31T06:20:54.485Z,100263.63
2023-01-31T06:23:57.313Z,100246.94
2023-01-31T06:26:59.867Z,100261.47
2023-01-31T06:30:02.362Z,100271.03
2023-01-31T06:33:05.517Z,100263.28
2023-01-31T06:36:08.540Z,100275.31
2023-01-31T06:39:12.729Z,100282.56
2023-01-31T06:42:15.422Z,100280.91
2023-01-31T06:45:18.035Z,100294.13
2023-01-31T06:48:21.005Z,100284.53
2023-01-31T06:51:23.758Z,100295.41
2023-01-31T06:54:26.309Z,100306.66
2023-01-31T06:57:28.938Z,100299.09
2023-01-31T07:00:31.684Z,100308.13
2023-01-31T07:03:34.444Z,100308.34
2023-01-31T07:06:37.103Z,100322.75
2023-01-31T07:09:39.789Z,100297.84
2023-01-31T07:12:43.159Z,100296.16
2023-01-31T07:15:46.339Z,100304.53
2023-01-31T07:18:52.626Z,100296.13
2023-01-31T07:21:55.157Z,100304.72
2023-01-31T07:24:58.592Z,100301.44
2023-01-31T07:28:02.304Z,100301.09
2023-01-31T07:31:11.750Z,100299.69
2023-01-31T07:34:14.383Z,100323.34
2023-01-31T07:37:16.924Z,100310.09
2023-01-31T07:40:20.553Z,100327.56
2023-01-31T07:43:23.077Z,100326.06
2023-01-31T07:46:25.714Z,100332.53
2023-01-31T07:49:28.188Z,100349.91
2023-01-31T07:52:32.429Z,100339.53
2023-01-31T07:55:35.165Z,100349.28
2023-01-31T07:58:39.803Z,100364.84
2023-01-31T08:02:01.143Z,100373.09
2023-01-31T08:05:04.178Z,100388.19
2023-01-31T08:08:12.870Z,100365.03
2023-01-31T08:11:15.680Z,100373.66
2023-01-31T08:14:20.882Z,100384.75
2023-01-31T08:17:24.093Z,100390.69
2023-01-31T08:20:26.958Z,100401.25
2023-01-31T08:23:30.632Z,100407.56
2023-01-31T08:26:33.400Z,100431.75
2023-01-31T08:29:36.286Z,100431.56
2023-01-31T08:32:39.101Z,100440.81
2023-01-31T08:35:41.713Z,100440.84
2023-01-31T08:38:44.948Z,100450.44
2023-01-31T08:41:48.309Z,100455.88
2023-01-31T08:44:50.890Z,100465.50
2023-01-31T08:47:57.780Z,100460.84
2023-01-31T08:51:05.449Z,100470.81
2023-01-31T08:54:09.959Z,100481.59
2023-01-31T08:57:12.708Z,100489.66
2023-01-31T09:00:16.737Z,100467.66
2023-01-31T09:03:19.338Z,100475.28
2023-01-31T09:06:23.553Z,100475.00
2023-01-31T09:09:27.733Z,100495.16
2023-01-31T09:12:31.483Z,100489.50
2023-01-31T09:15:34.010Z,100495.66
2023-01-31T09:18:40.059Z,100500.09
2023-01-31T09:21:42.768Z,100494.97
2023-01-31T09:24:46.160Z,100479.28
2023-01-31T09:27:51.957Z,100490.38
2023-01-31T09:30:54.781Z,100493.38
2023-01-31T09:33:57.352Z,100514.72
2023-01-31T09:36:59.932Z,100513.25
2023-01-31T09:40:02.798Z,100506.59
2023-01-31T09:43:06.917Z,100512.88
2023-01-31T09:46:15.705Z,100514.22
2023-01-31T09:49:23.978Z,100544.72
2023-01-31T09:52:28.501Z,100526.53
2023-01-31T09:55:47.869Z,100521.84
2023-01-31T09:58:57.028Z,100529.47
2023-01-31T10:02:11.850Z,100527.84
2023-01-31T10:05:26.458Z,100518.22
2023-01-31T10:09:11.125Z,100550.34
2023-01-31T10:12:38.275Z,100525.50
2023-01-31T10:15:53.168Z,100529.78
2023-01-31T10:19:06.076Z,100549.34
2023-01-31T10:22:17.450Z,100550.84
2023-01-31T10:25:37.412Z,100551.34
2023-01-31T10:29:19.901Z,100557.84
2023-01-31T10:32:33.902Z,100527.63
2023-01-31T10:35:43.321Z,100515.88
2023-01-31T10:39:14.807Z,100522.84
2023-01-31T10:42:26.727Z,100520.47
2023-01-31T10:45:32.000Z,100515.84
2023-01-31T10:48:35.356Z,100513.34
2023-01-31T10:52:04.534Z,100507.22
2023-01-31T10:55:22.376Z,100505.41
2023-01-31T10:58:25.111Z,100496.59
2023-01-31T11:01:29.063Z,100512.22
2023-01-31T11:04:38.713Z,100508.91
2023-01-31T11:07:41.255Z,100521.53
2023-01-31T11:10:55.171Z,100506.91
2023-01-31T11:14:12.173Z,100491.66
2023-01-31T11:17:19.292Z,100499.94
2023-01-31T11:20:27.247Z,100499.09
2023-01-31T11:23:34.253Z,100486.16
2023-01-31T11:26:42.889Z,100500.91
2023-01-31T11:29:51.222Z,100481.63
2023-01-31T11:32:54.125Z,100457.66
2023-01-31T11:35:56.765Z,100480.38
2023-01-31T11:38:59.587Z,100463.84
2023-01-31T11:42:14.098Z,100464.22
2023-01-31T11:45:20.259Z,100460.41
2023-01-31T11:48:26.597Z,100475.19
2023-01-31T11:51:31.875Z,100473.25
2023-01-31T11:54:35.061Z,100471.53
2023-01-31T11:57:39.770Z,100478.63
2023-01-31T12:00:55.988Z,100461.72
2023-01-31T12:04:04.213Z,100461.50
2023-01-31T12:07:22.834Z,100466.63
2023-01-31T12:10:54.682Z,100473.91
2023-01-31T12:14:13.005Z,100481.47
2023-01-31T12:17:17.826Z,100458.00
2023-01-31T12:20:48.923Z,100463.78
2023-01-31T12:24:06.334Z,100471.06
2023-01-31T12:27:37.976Z,100479.84
2023-01-31T12:31:25.712Z,100467.03
2023-01-31T12:34:59.055Z,100471.56
2023-01-31T12:38:21.118Z,100481.97
2023-01-31T12:41:23.595Z,100465.16
2023-01-31T12:44:41.159Z,100473.69
2023-01-31T12:47:52.975Z,100487.22
2023-01-31T12:51:32.514Z,100491.19
2023-01-31T12:54:47.015Z,100484.66
2023-01-31T12:57:57.771Z,100481.00
2023-01-31T13:01:37.330Z,100464.59
2023-01-31T13:04:52.956Z,100479.88
2023-01-31T13:08:19.238Z,100494.09
2023-01-31T13:11:31.526Z,100481.84
2023-01-31T13:14:40.649Z,100494.19
2023-01-31T13:17:44.227Z,100487.44
2023-01-31T13:20:52.482Z,100487.97
2023-01-31T13:24:02.178Z,100494.00
2023-01-31T13:27:39.297Z,100489.47
2023-01-31T13:30:48.693Z,100514.38
2023-01-31T13:33:58.523Z,100495.81
2023-01-31T13:37:04.776Z,100505.34
2023-01-31T13:40:20.394Z,100528.47
2023-01-31T13:43:23.161Z,100523.34
2023-01-31T13:46:44.209Z,100512.19
2023-01-31T13:49:55.993Z,100518.47
2023-01-31T13:53:02.818Z,100513.78
2023-01-31T13:56:13.347Z,100529.78
2023-01-31T13:59:24.183Z,100496.81
2023-01-31T14:02:29.337Z,100508.22
2023-01-31T14:05:51.373Z,100516.91
2023-01-31T14:08:54.155Z,100525.28
2023-01-31T14:11:59.370Z,100524.31
2023-01-31T14:15:09.621Z,100527.47
2023-01-31T14:18:12.221Z,100534.69
2023-01-31T14:21:30.048Z,100551.72
2023-01-31T14:24:48.582Z,100524.19
2023-01-31T14:27:51.308Z,100529.59
2023-01-31T14:30:55.877Z,100526.78
2023-01-31T14:33:58.521Z,100533.44
2023-01-31T14:37:36.201Z,100523.16
2023-01-31T14:40:53.725Z,100528.78
2023-01-31T14:44:20.728Z,100530.78
2023-01-31T14:47:50.513Z,100520.84
2023-01-31T14:51:02.636Z,100531.16
2023-01-31T14:54:21.378Z,100537.94
2023-01-31T14:57:34.512Z,100526.50
2023-01-31T15:00:39.035Z,100525.69
2023-01-31T15:03:59.051Z,100537.63
2023-01-31T15:07:01.823Z,100525.34
2023-01-31T15:10:05.030Z,100535.78
2023-01-31T15:13:42.843Z,100545.53
2023-01-31T15:16:45.535Z,100545.38
2023-01-31T15:19:57.593Z,100544.53
2023-01-31T15:23:09.080Z,100548.69
2023-01-31T15:26:16.757Z,100542.56
2023-01-31T15:29:24.336Z,100566.06
2023-01-31T15:32:40.562Z,100557.13
2023-01-31T15:35:49.761Z,100568.38
2023-01-31T15:38:58.312Z,100553.31
2023-01-31T15:42:29.560Z,100565.53
2023-01-31T15:45:31.992Z,100557.69
2023-01-31T15:48:34.491Z,100556.19
2023-01-31T15:51:37.093Z,100547.72
2023-01-31T15:54:50.613Z,100555.97
2023-01-31T15:57:57.649Z,100552.69
2023-01-31T16:01:02.564Z,100552.50
2023-01-31T16:04:05.486Z,100550.84
2023-01-31T16:07:16.838Z,100555.16
2023-01-31T16:10:19.699Z,100555.66
2023-01-31T16:13:22.866Z,100555.00
2023-01-31T16:16:27.098Z,100560.63
2023-01-31T16:19:32.933Z,100557.13
2023-01-31T16:22:35.444Z,100547.72
2023-01-31T16:25:39.171Z,100554.81
2023-01-31T16:28:50.416Z,100558.31
2023-01-31T16:31:55.557Z,100553.81
2023-01-31T16:35:05.618Z,100562.63
2023-01-31T16:38:27.037Z,100559.97
2023-01-31T16:41:51.877Z,100565.28
2023-01-31T16:44:54.586Z,100561.31
2023-01-31T16:48:29.455Z,100561.78
2023-01-31T16:51:32.144Z,100556.97
2023-01-31T16:54:50.715Z,100557.47
2023-01-31T16:57:53.936Z,100551.00
2023-01-31T17:01:13.795Z,100550.00
2023-01-31T17:04:22.048Z,100547.88
2023-01-31T17:07:28.632Z,100538.44
2023-01-31T17:10:34.816Z,100548.19
2023-01-31T17:13:37.365Z,100547.88
2023-01-31T17:16:39.945Z,100557.81
2023-01-31T17:19:42.893Z,100552.84
2023-01-31T17:22:56.996Z,100555.97
2023-01-31T17:26:05.908Z,100555.81
2023-01-31T17:29:08.447Z,100558.19
2023-01-31T17:32:13.652Z,100554.19
2023-01-31T17:35:31.751Z,100562.31
2023-01-31T17:38:34.551Z,100552.41
2023-01-31T17:41:41.193Z,100563.47
2023-01-31T17:44:44.321Z,100560.19
2023-01-31T17:47:47.585Z,100550.44
2023-01-31T17:50:52.397Z,100556.22
2023-01-31T17:53:56.047Z,100548.28
2023-01-31T17:56:58.759Z,100548.13
2023-01-31T18:00:01.373Z,100552.44
2023-01-31T18:03:05.636Z,100539.38
2023-01-31T18:06:09.788Z,100540.69
2023-01-31T18:09:15.693Z,100544.28
2023-01-31T18:12:20.634Z,100529.25
2023-01-31T18:15:23.701Z,100538.84
2023-01-31T18:18:26.341Z,100539.34
2023-01-31T18:21:29.007Z,100537.03
2023-01-31T18:24:31.983Z,100543.97
2023-01-31T18:27:34.905Z,100538.03
2023-01-31T18:30:37.960Z,100532.25
2023-01-31T18:33:45.167Z,100535.22
2023-01-31T18:36:48.059Z,100536.34
2023-01-31T18:39:52.155Z,100535.88
2023-01-31T18:42:54.946Z,100536.06
2023-01-31T18:45:57.627Z,100537.88
2023-01-31T18:49:00.538Z,100539.03
2023-01-31T18:52:06.356Z,100545.34
2023-01-31T18:55:09.546Z,100540.22
2023-01-31T18:58:12.332Z,100522.31
2023-01-31T19:01:20.556Z,100529.44
2023-01-31T19:04:23.580Z,100529.63
2023-01-31T19:07:26.143Z,100540.06
2023-01-31T19:10:29.662Z,100539.53
2023-01-31T19:13:32.754Z,100533.72
2023-01-31T19:16:37.947Z,100540.38
2023-01-31T19:19:40.787Z,100538.84
2023-01-31T19:22:44.719Z,100551.94
2023-01-31T19:25:47.534Z,100546.47
2023-01-31T19:28:50.490Z,100546.78
2023-01-31T19:31:54.070Z,100551.03
2023-01-31T19:34:57.289Z,100545.66
2023-01-31T19:38:00.094Z,100535.72
2023-01-31T19:41:11.933Z,100521.13
2023-01-31T19:44:14.996Z,100534.31
2023-01-31T19:47:18.440Z,100538.13
2023-01-31T19:50:21.210Z,100525.69
2023-01-31T19:53:25.419Z,100525.00
2023-01-31T19:56:29.908Z,100520.88
2023-01-31T19:59:33.639Z,100519.34
2023-01-31T20:02:44.442Z,100522.31
2023-01-31T20:05:50.165Z,100517.66
2023-01-31T20:08:55.845Z,100526.75
2023-01-31T20:11:59.771Z,100512.03
2023-01-31T20:15:02.542Z,100513.63
2023-01-31T20:18:06.724Z,100514.09
2023-01-31T20:21:15.154Z,100510.13
2023-01-31T20:24:17.965Z,100513.34
2023-01-31T20:27:21.043Z,100509.53
2023-01-31T20:30:23.893Z,100511.66
2023-01-31T20:33:26.801Z,100515.44
2023-01-31T20:36:29.654Z,100508.94
2023-01-31T20:39:32.824Z,100517.03
2023-01-31T20:42:35.919Z,100523.06
2023-01-31T20:45:38.735Z,100512.31
2023-01-31T20:48:43.199Z,100503.03
2023-01-31T20:51:46.029Z,100501.91
2023-01-31T20:54:48.714Z,100498.66
2023-01-31T20:57:51.829Z,100493.06
2023-01-31T21:00:56.005Z,100489.91
2023-01-31T21:03:58.911Z,100494.38
2023-01-31T21:07:02.879Z,100490.19
2023-01-31T21:10:06.907Z,100494.69
2023-01-31T21:13:09.535Z,100488.25
2023-01-31T21:16:12.931Z,100489.09
2023-01-31T21:19:16.302Z,100474.44
2023-01-31T21:22:19.023Z,100465.34
2023-01-31T21:25:22.571Z,100462.38
2023-01-31T21:28:26.587Z,100458.03
2023-01-31T21:31:30.647Z,100456.94
2023-01-31T21:34:33.332Z,100475.41
2023-01-31T21:37:36.036Z,100461.91
2023-01-31T21:40:39.290Z,100466.56
2023-01-31T21:43:42.057Z,100474.50
2023-01-31T21:46:46.636Z,100471.31
2023-01-31T21:49:49.342Z,100463.94
2023-01-31T21:52:51.929Z,100469.06
2023-01-31T21:56:11.726Z,100472.38
2023-01-31T21:59:14.482Z,100463.47
2023-01-31T22:02:17.098Z,100468.91
2023-01-31T22:05:19.617Z,100466.31
2023-01-31T22:08:22.186Z,100474.09
2023-01-31T22:11:25.482Z,100453.59
2023-01-31T22:14:27.918Z,100450.38
2023-01-31T22:17:30.338Z,100457.28
2023-01-31T22:20:32.775Z,100463.41
2023-01-31T22:23:37.819Z,100451.34
2023-01-31T22:26:43.182Z,100448.38
2023-01-31T22:29:45.886Z,100431.56
2023-01-31T22:32:48.441Z,100433.41
2023-01-31T22:35:51.460Z,100442.66
2023-01-31T22:38:54.271Z,100443.50
2023-01-31T22:41:57.246Z,100433.28
2023-01-31T22:44:59.732Z,100433.13
2023-01-31T22:48:02.220Z,100439.06
2023-01-31T22:51:11.451Z,100424.22
2023-01-31T22:54:14.888Z,100421.94
2023-01-31T22:57:17.300Z,100417.28
2023-01-31T23:00:20.599Z,100410.88
2023-01-31T23:03:24.007Z,100411.25
2023-01-31T23:06:27.380Z,100399.53
2023-01-31T23:09:29.955Z,100397.53
2023-01-31T23:12:33.814Z,100393.59
2023-01-31T23:15:37.522Z,100389.31
2023-01-31T23:18:40.259Z,100386.34
2023-01-31T23:21:44.350Z,100382.22
2023-01-31T23:24:46.899Z,100400.91
2023-01-31T23:27:49.820Z,100388.19
2023-01-31T23:30:52.420Z,100393.97
2023-01-31T23:33:54.969Z,100395.00
2023-01-31T23:36:57.492Z,100388.69
2023-01-31T23:40:00.133Z,100388.22
2023-01-31T23:43:03.049Z,100376.31
2023-01-31T23:46:05.554Z,100368.22
2023-01-31T23:49:08.185Z,100365.25
2023-01-31T23:52:10.825Z,100373.50
2023-01-31T23:55:13.507Z,100361.28
2023-01-31T23:58:15.951Z,100359.63
